KCDW/CDW METAR and TAF weather

Enter ICAO airport designator
Station Type Date Time Source
KCDW METAR 2019/12/08 18:53 UTC NOAA

KCDW 081853Z 18008KT 10SM CLR 05/M08 A3044 RMK AO2 SLP317 T00501083


Station Type Date Time Source
KCDW Decoded METAR 2019/12/08 18:53 UTC NOAA

CALDWELL ESSEX COUNTY AIRPORT , NJ, United States (KCDW) 40-53N 074-17W 64M
Dec 08, 2019 - 01:53 PM EST / 2019.12.08 1853 UTC
Wind: from the S (180 degrees) at 9 MPH (8 KT):0
Visibility: 10 mile(s):0
Sky conditions: clear
Temperature: 41.0 F (5.0 C)
Dew Point: 17.1 F (-8.3 C)
Relative Humidity: 37%
Pressure (altimeter): 30.44 in. Hg (1030 hPa)
ob: KCDW 081853Z 18008KT 10SM CLR 05/M08 A3044 RMK AO2 SLP317 T00501083
cycle: 19

Station Type Date Time Source
KCDW TAF UTC NOAA

Error!

Example: see airport list